createdAt,value
2019-04-11T00:00:57.940Z,3.30
2019-04-11T00:04:01.914Z,3.40
2019-04-11T00:07:05.900Z,3.30
2019-04-11T00:10:10.306Z,3.30
2019-04-11T00:13:18.847Z,3.20
2019-04-11T00:16:19.403Z,3.20
2019-04-11T00:19:23.225Z,3.20
2019-04-11T00:22:27.699Z,3.20
2019-04-11T00:25:31.675Z,3.20
2019-04-11T00:28:35.272Z,3.10
2019-04-11T00:31:39.074Z,3.10
2019-04-11T00:34:42.818Z,3.20
2019-04-11T00:37:47.407Z,3.20
2019-04-11T00:40:51.260Z,3.20
2019-04-11T00:43:54.857Z,3.20
2019-04-11T00:46:58.535Z,3.20
2019-04-11T00:50:03.978Z,3.10
2019-04-11T00:53:07.201Z,3.10
2019-04-11T00:56:10.939Z,3.10
2019-04-11T00:59:14.479Z,3.00
2019-04-11T01:02:17.931Z,3.00
2019-04-11T01:05:21.444Z,3.00
2019-04-11T01:08:24.924Z,3.10
2019-04-11T01:11:28.351Z,3.00
2019-04-11T01:14:32.037Z,3.10
2019-04-11T01:17:35.745Z,3.10
2019-04-11T01:20:39.776Z,3.10
2019-04-11T01:23:43.342Z,3.10
2019-04-11T01:26:47.613Z,3.20
2019-04-11T01:29:51.554Z,3.10
2019-04-11T01:32:55.148Z,3.10
2019-04-11T01:35:58.646Z,3.10
2019-04-11T01:39:03.747Z,3.00
2019-04-11T01:42:07.206Z,3.00
2019-04-11T01:45:11.520Z,3.00
2019-04-11T01:48:35.410Z,3.00
2019-04-11T01:51:40.034Z,3.00
2019-04-11T01:54:43.920Z,2.90
2019-04-11T01:57:47.394Z,2.90
2019-04-11T02:01:01.286Z,2.80
2019-04-11T02:04:16.043Z,2.80
2019-04-11T02:07:20.538Z,2.90
2019-04-11T02:10:24.477Z,2.90
2019-04-11T02:13:28.052Z,2.80
2019-04-11T02:16:32.673Z,2.70
2019-04-11T02:19:36.427Z,2.70
2019-04-11T02:22:44.781Z,2.60
2019-04-11T02:25:58.976Z,2.60
2019-04-11T02:29:03.464Z,2.60
2019-04-11T02:32:07.603Z,2.50
2019-04-11T02:35:11.711Z,2.50
2019-04-11T02:38:16.596Z,2.60
2019-04-11T02:41:21.094Z,2.50
2019-04-11T02:44:39.864Z,2.50
2019-04-11T02:47:32.833Z,2.40
2019-04-11T02:50:37.102Z,2.40
2019-04-11T02:53:41.057Z,2.40
2019-04-11T02:56:45.598Z,2.30
2019-04-11T02:59:51.224Z,2.30
2019-04-11T03:02:54.827Z,2.30
